createdAt,value
2023-01-29T00:01:13.895Z,125.97
2023-01-29T00:03:43.843Z,128.10
2023-01-29T00:06:16.031Z,136.27
2023-01-29T00:08:45.621Z,135.05
2023-01-29T00:11:16.624Z,130.88
2023-01-29T00:13:46.356Z,142.23
2023-01-29T00:16:16.077Z,151.02
2023-01-29T00:18:46.011Z,136.35
2023-01-29T00:21:20.046Z,129.82
2023-01-29T00:23:49.839Z,131.45
2023-01-29T00:26:20.068Z,127.70
2023-01-29T00:28:51.055Z,122.05
2023-01-29T00:31:22.557Z,130.65
2023-01-29T00:33:52.699Z,118.22
2023-01-29T00:36:25.413Z,118.47
2023-01-29T00:38:58.820Z,116.47
2023-01-29T00:41:42.415Z,128.30
2023-01-29T00:44:24.652Z,116.90
2023-01-29T00:46:55.039Z,104.80
2023-01-29T00:49:25.967Z,125.07
2023-01-29T00:52:10.662Z,119.97
2023-01-29T00:54:40.309Z,115.50
2023-01-29T00:57:09.896Z,110.85
2023-01-29T00:59:40.491Z,107.47
2023-01-29T01:02:22.616Z,127.78
2023-01-29T01:04:52.238Z,117.97
2023-01-29T01:07:24.610Z,115.28
2023-01-29T01:10:06.489Z,113.07
2023-01-29T01:12:36.745Z,117.03
2023-01-29T01:15:06.777Z,114.97
2023-01-29T01:17:36.486Z,111.32
2023-01-29T01:20:06.500Z,131.32
2023-01-29T01:22:38.722Z,110.63
2023-01-29T01:25:09.132Z,109.20
2023-01-29T01:27:41.216Z,91.88
2023-01-29T01:30:13.952Z,96.60
2023-01-29T01:32:45.178Z,101.32
2023-01-29T01:35:15.049Z,108.15
2023-01-29T01:37:47.285Z,110.75
2023-01-29T01:40:20.218Z,106.63
2023-01-29T01:42:51.346Z,99.00
2023-01-29T01:45:24.379Z,107.15
2023-01-29T01:50:30.119Z,107.88
2023-01-29T01:53:07.325Z,111.85
2023-01-29T01:55:37.962Z,102.45
2023-01-29T01:58:12.766Z,111.88
2023-01-29T02:00:42.828Z,116.60
2023-01-29T02:03:25.833Z,120.07
2023-01-29T02:06:09.140Z,117.38
2023-01-29T02:08:58.988Z,120.50
2023-01-29T02:11:28.602Z,120.22
2023-01-29T02:13:58.387Z,117.13
2023-01-29T02:16:28.534Z,121.60
2023-01-29T02:18:58.584Z,124.45
2023-01-29T02:22:01.041Z,117.15
2023-01-29T02:25:10.478Z,114.63
2023-01-29T02:28:05.733Z,114.85
2023-01-29T02:30:41.019Z,110.90
2023-01-29T02:33:17.350Z,115.45
2023-01-29T02:35:52.642Z,115.00
2023-01-29T02:38:27.396Z,109.60
2023-01-29T02:40:59.064Z,94.65
2023-01-29T02:43:33.065Z,99.15
2023-01-29T02:46:11.004Z,98.72
2023-01-29T02:48:46.010Z,104.10
2023-01-29T02:51:21.818Z,124.00
2023-01-29T02:53:57.435Z,109.15
2023-01-29T02:56:31.374Z,107.40
2023-01-29T02:59:05.000Z,106.72
2023-01-29T03:01:40.654Z,109.55
2023-01-29T03:04:14.387Z,109.82
2023-01-29T03:06:46.257Z,114.72
2023-01-29T03:09:19.165Z,108.05
2023-01-29T03:11:51.714Z,120.13
2023-01-29T03:14:47.293Z,116.05
2023-01-29T03:17:19.572Z,108.53
2023-01-29T03:19:50.057Z,105.30
2023-01-29T03:22:27.915Z,112.95
2023-01-29T03:25:13.169Z,110.22
2023-01-29T03:27:59.494Z,123.57
2023-01-29T03:30:49.791Z,115.78
2023-01-29T03:33:48.942Z,116.05
2023-01-29T03:36:22.424Z,110.97
2023-01-29T03:38:52.251Z,109.07
2023-01-29T03:41:28.593Z,114.28
2023-01-29T03:44:03.309Z,109.40
2023-01-29T03:46:35.269Z,102.05
2023-01-29T03:49:12.947Z,96.55
2023-01-29T03:51:59.292Z,93.22
2023-01-29T03:54:32.417Z,102.65
2023-01-29T03:57:06.093Z,107.43
2023-01-29T03:59:41.751Z,110.07
2023-01-29T04:02:27.926Z,103.82
2023-01-29T04:05:06.942Z,114.00
2023-01-29T04:07:44.501Z,107.43
2023-01-29T04:10:19.936Z,118.72
2023-01-29T04:12:52.754Z,114.57
2023-01-29T04:15:23.428Z,105.10
2023-01-29T04:17:55.563Z,95.40
2023-01-29T04:20:40.882Z,108.30
2023-01-29T04:23:22.949Z,109.00
2023-01-29T04:25:59.498Z,113.25
2023-01-29T04:28:48.938Z,113.70
2023-01-29T04:31:19.138Z,113.78
2023-01-29T04:33:55.921Z,103.20
2023-01-29T04:36:37.276Z,103.00
2023-01-29T04:39:14.264Z,94.93
2023-01-29T04:41:51.020Z,95.38
2023-01-29T04:44:23.916Z,106.82
2023-01-29T04:47:00.899Z,95.70
2023-01-29T04:49:36.753Z,96.30
2023-01-29T04:52:15.058Z,91.63
2023-01-29T04:54:53.883Z,95.45
2023-01-29T04:57:28.114Z,92.60
2023-01-29T05:02:30.066Z,84.32
2023-01-29T05:05:00.468Z,85.95
2023-01-29T05:07:33.891Z,84.60
2023-01-29T05:10:03.642Z,87.97
2023-01-29T05:12:33.412Z,84.28
2023-01-29T05:15:05.428Z,84.00
2023-01-29T05:17:35.023Z,85.85
2023-01-29T05:20:04.643Z,86.43
2023-01-29T05:22:40.262Z,88.78
2023-01-29T05:25:23.698Z,81.00
2023-01-29T05:28:07.260Z,81.45
2023-01-29T05:30:38.586Z,76.93
2023-01-29T05:33:13.564Z,86.65
2023-01-29T05:35:43.205Z,91.13
2023-01-29T05:38:15.834Z,79.38
2023-01-29T05:40:45.724Z,73.65
2023-01-29T05:43:18.557Z,82.90
2023-01-29T05:45:55.344Z,81.85
2023-01-29T05:48:25.244Z,77.68
2023-01-29T05:50:55.036Z,75.85
2023-01-29T05:53:27.197Z,85.55
2023-01-29T05:55:57.274Z,84.93
2023-01-29T05:58:26.865Z,80.30
2023-01-29T06:00:56.530Z,86.68
2023-01-29T06:03:26.102Z,83.78
2023-01-29T06:05:56.154Z,75.78
2023-01-29T06:08:28.381Z,77.10
2023-01-29T06:10:57.993Z,76.63
2023-01-29T06:13:27.680Z,84.03
2023-01-29T06:15:57.333Z,79.95
2023-01-29T06:18:26.904Z,77.00
2023-01-29T06:20:56.486Z,84.03
2023-01-29T06:23:28.626Z,83.90
2023-01-29T06:26:02.666Z,88.63
2023-01-29T06:28:32.315Z,78.95
2023-01-29T06:31:21.014Z,83.22
2023-01-29T06:33:52.029Z,88.38
2023-01-29T06:36:21.629Z,86.30
2023-01-29T06:38:53.778Z,81.70
2023-01-29T06:41:25.669Z,79.60
2023-01-29T06:43:55.452Z,82.00
2023-01-29T06:46:25.233Z,83.45
2023-01-29T06:48:54.889Z,79.70
2023-01-29T06:51:24.658Z,77.43
2023-01-29T06:53:57.209Z,79.25
2023-01-29T06:56:27.082Z,73.30
2023-01-29T06:58:56.682Z,68.55
2023-01-29T07:01:35.783Z,72.80
2023-01-29T07:04:06.062Z,70.22
2023-01-29T07:06:36.243Z,71.47
2023-01-29T07:09:08.470Z,70.28
2023-01-29T07:11:38.221Z,72.22
2023-01-29T07:14:08.114Z,68.55
2023-01-29T07:16:37.818Z,72.80
2023-01-29T07:19:07.381Z,69.43
2023-01-29T07:21:37.020Z,65.30
2023-01-29T07:24:09.906Z,67.18
2023-01-29T07:26:39.604Z,70.88
2023-01-29T07:29:09.148Z,70.80
2023-01-29T07:31:38.928Z,63.15
2023-01-29T07:34:08.540Z,67.85
2023-01-29T07:36:38.127Z,72.53
2023-01-29T07:39:10.299Z,65.60
2023-01-29T07:41:39.908Z,69.22
2023-01-29T07:44:18.309Z,66.32
2023-01-29T07:46:47.899Z,67.38
2023-01-29T07:49:17.686Z,68.43
2023-01-29T07:51:47.297Z,71.65
2023-01-29T07:54:19.446Z,69.72
2023-01-29T07:56:49.038Z,69.82
2023-01-29T07:59:18.809Z,65.40
2023-01-29T08:01:48.432Z,69.30
2023-01-29T08:04:17.976Z,67.45
2023-01-29T08:06:47.636Z,71.63
2023-01-29T08:09:19.831Z,63.63
2023-01-29T08:11:49.434Z,61.30
2023-01-29T08:14:19.005Z,64.60
2023-01-29T08:16:48.658Z,62.30
2023-01-29T08:19:18.286Z,74.15
2023-01-29T08:21:47.896Z,61.33
2023-01-29T08:24:20.409Z,67.00
2023-01-29T08:26:50.046Z,68.75
2023-01-29T08:29:19.633Z,62.78
2023-01-29T08:31:49.367Z,61.33
2023-01-29T08:34:19.007Z,61.08
2023-01-29T08:36:48.576Z,62.63
2023-01-29T08:39:20.741Z,60.45
2023-01-29T08:41:50.358Z,66.63
2023-01-29T08:44:20.124Z,62.65
2023-01-29T08:46:49.710Z,62.38
2023-01-29T08:49:19.505Z,63.58
2023-01-29T08:51:49.137Z,62.20
2023-01-29T08:54:21.370Z,62.75
2023-01-29T08:56:51.273Z,60.80
2023-01-29T08:59:22.868Z,63.10
2023-01-29T09:01:52.511Z,62.05
2023-01-29T09:04:22.071Z,58.08
2023-01-29T09:06:51.658Z,68.88
2023-01-29T09:09:23.935Z,61.97
2023-01-29T09:11:53.624Z,62.38
2023-01-29T09:14:23.380Z,65.50
2023-01-29T09:16:52.980Z,59.95
2023-01-29T09:19:22.542Z,62.20
2023-01-29T09:21:52.311Z,62.30
2023-01-29T09:24:24.524Z,62.90
2023-01-29T09:26:54.230Z,59.03
2023-01-29T09:29:23.890Z,61.92
2023-01-29T09:31:53.593Z,65.50
2023-01-29T09:34:23.260Z,60.88
2023-01-29T09:36:52.834Z,58.88
2023-01-29T09:39:25.029Z,62.03
2023-01-29T09:41:59.856Z,58.83
2023-01-29T09:44:41.374Z,58.83
2023-01-29T09:47:14.702Z,61.15
2023-01-29T09:49:48.038Z,60.90
2023-01-29T09:52:21.209Z,64.50
2023-01-29T09:55:05.160Z,60.35
2023-01-29T09:57:49.568Z,58.88
2023-01-29T10:00:23.660Z,62.15
2023-01-29T10:03:21.791Z,57.63
2023-01-29T10:06:07.423Z,60.40
2023-01-29T10:08:51.196Z,56.15
2023-01-29T10:11:30.494Z,55.65
2023-01-29T10:14:07.396Z,56.08
2023-01-29T10:16:50.819Z,54.78
2023-01-29T10:19:54.062Z,58.58
2023-01-29T10:22:39.886Z,56.08
2023-01-29T10:25:13.530Z,56.15
2023-01-29T10:27:50.266Z,60.80
2023-01-29T10:30:36.226Z,55.30
2023-01-29T10:33:07.717Z,53.35
2023-01-29T10:35:39.148Z,58.88
2023-01-29T10:38:24.334Z,54.60
2023-01-29T10:40:58.558Z,57.65
2023-01-29T10:46:13.225Z,54.72
2023-01-29T10:48:58.388Z,50.85
2023-01-29T10:51:38.908Z,55.10
2023-01-29T10:54:21.115Z,53.55
2023-01-29T10:57:02.169Z,54.80
2023-01-29T10:59:46.362Z,48.17
2023-01-29T11:02:18.642Z,49.65
2023-01-29T11:04:48.446Z,50.00
2023-01-29T11:07:19.874Z,50.30
2023-01-29T11:09:55.316Z,50.20
2023-01-29T11:12:27.397Z,48.88
2023-01-29T11:15:02.982Z,52.08
2023-01-29T11:17:32.577Z,48.67
2023-01-29T11:20:02.150Z,50.50
2023-01-29T11:22:33.014Z,50.08
2023-01-29T11:25:14.065Z,44.97
2023-01-29T11:27:47.172Z,49.13
2023-01-29T11:30:26.325Z,47.45
2023-01-29T11:33:04.167Z,46.95
2023-01-29T11:35:33.831Z,46.40
2023-01-29T11:38:11.026Z,48.67
2023-01-29T11:40:42.555Z,45.75
2023-01-29T11:43:19.566Z,47.50
2023-01-29T11:45:52.879Z,49.90
2023-01-29T11:48:24.285Z,50.10
2023-01-29T11:50:55.720Z,46.22
2023-01-29T11:53:30.268Z,42.85
2023-01-29T11:55:59.990Z,46.95
2023-01-29T11:58:31.688Z,45.75
2023-01-29T12:01:04.480Z,46.88
2023-01-29T12:03:37.607Z,46.92
2023-01-29T12:06:09.978Z,44.15
2023-01-29T12:08:41.056Z,49.35
2023-01-29T12:11:12.818Z,44.53
2023-01-29T12:13:43.705Z,48.50
2023-01-29T12:16:26.351Z,47.72
2023-01-29T12:18:59.978Z,46.90
2023-01-29T12:21:33.293Z,53.22
2023-01-29T12:24:06.763Z,49.70
2023-01-29T12:26:38.979Z,44.58
2023-01-29T12:29:19.191Z,49.53
2023-01-29T12:31:54.443Z,52.35
2023-01-29T12:34:30.484Z,50.53
2023-01-29T12:37:06.119Z,49.42
2023-01-29T12:39:35.674Z,49.97
2023-01-29T12:42:08.098Z,49.72
2023-01-29T12:44:42.453Z,51.50
2023-01-29T12:47:17.955Z,47.72
2023-01-29T12:49:49.487Z,54.22
2023-01-29T12:52:22.192Z,48.35
2023-01-29T12:54:56.235Z,49.40
2023-01-29T12:57:28.999Z,53.20
2023-01-29T13:00:02.189Z,51.50
2023-01-29T13:02:40.806Z,51.47
2023-01-29T13:05:20.735Z,50.45
2023-01-29T13:07:52.819Z,49.65
2023-01-29T13:10:27.641Z,50.35
2023-01-29T13:13:01.638Z,48.78
2023-01-29T13:15:33.659Z,51.63
2023-01-29T13:18:36.633Z,50.47
2023-01-29T13:21:07.634Z,45.28
2023-01-29T13:23:40.024Z,48.78
2023-01-29T13:26:09.667Z,47.38
2023-01-29T13:28:39.482Z,49.80
2023-01-29T13:31:21.680Z,48.78
2023-01-29T13:34:01.813Z,51.47
2023-01-29T13:36:32.974Z,51.25
2023-01-29T13:39:05.715Z,51.15
2023-01-29T13:41:40.260Z,50.47
2023-01-29T13:44:20.628Z,46.25
2023-01-29T13:46:57.587Z,45.78
2023-01-29T13:49:41.500Z,50.30
2023-01-29T13:52:22.310Z,46.20
2023-01-29T13:54:57.930Z,50.97
2023-01-29T13:57:40.568Z,45.70
2023-01-29T14:01:02.351Z,45.92
2023-01-29T14:04:04.590Z,51.67
2023-01-29T14:06:52.521Z,50.53
2023-01-29T14:09:58.198Z,44.92
2023-01-29T14:12:43.939Z,51.83
2023-01-29T14:15:31.230Z,49.38
2023-01-29T14:18:07.801Z,48.28
2023-01-29T14:20:45.972Z,50.08
2023-01-29T14:23:26.994Z,50.30
2023-01-29T14:25:56.752Z,47.60
2023-01-29T14:28:28.787Z,49.85
2023-01-29T14:30:58.605Z,47.47
2023-01-29T14:33:36.792Z,49.13
2023-01-29T14:36:08.298Z,46.25
2023-01-29T14:38:41.941Z,47.38
2023-01-29T14:41:19.671Z,50.08
2023-01-29T14:43:49.291Z,44.42
2023-01-29T14:46:47.004Z,48.03
2023-01-29T14:49:52.056Z,56.88
2023-01-29T14:52:23.893Z,49.22
2023-01-29T14:54:56.717Z,46.72
2023-01-29T14:57:26.432Z,47.72
2023-01-29T14:59:59.085Z,45.72
2023-01-29T15:02:37.135Z,45.50
2023-01-29T15:05:10.509Z,48.75
2023-01-29T15:07:42.614Z,44.57
2023-01-29T15:10:22.772Z,51.17
2023-01-29T15:12:55.548Z,47.60
2023-01-29T15:15:35.982Z,48.65
2023-01-29T15:18:08.597Z,46.17
2023-01-29T15:20:39.474Z,45.58
2023-01-29T15:23:27.859Z,45.50
2023-01-29T15:26:01.804Z,45.17
2023-01-29T15:28:32.280Z,45.33
2023-01-29T15:31:04.126Z,46.20
2023-01-29T15:33:34.365Z,44.40
2023-01-29T15:36:07.823Z,45.85
2023-01-29T15:38:38.021Z,43.80
2023-01-29T15:41:20.129Z,46.03
2023-01-29T15:43:51.662Z,45.60
2023-01-29T15:46:25.029Z,45.97
2023-01-29T15:48:55.428Z,44.13
2023-01-29T15:51:26.910Z,54.25
2023-01-29T15:53:58.390Z,50.15
2023-01-29T15:56:32.378Z,48.25
2023-01-29T15:59:07.322Z,48.88
2023-01-29T16:01:38.955Z,46.63
2023-01-29T16:04:08.988Z,45.30
2023-01-29T16:06:40.351Z,48.85
2023-01-29T16:09:10.531Z,43.10
2023-01-29T16:11:43.029Z,43.28
2023-01-29T16:14:15.554Z,43.78
2023-01-29T16:16:48.556Z,45.95
2023-01-29T16:19:24.163Z,45.45
2023-01-29T16:21:58.565Z,44.72
2023-01-29T16:24:28.381Z,42.03
2023-01-29T16:27:04.022Z,44.50
2023-01-29T16:29:35.492Z,42.85
2023-01-29T16:32:06.279Z,52.95
2023-01-29T16:34:38.468Z,42.28
2023-01-29T16:37:10.495Z,40.78
2023-01-29T16:39:42.572Z,41.17
2023-01-29T16:42:30.936Z,40.15
2023-01-29T16:45:03.188Z,37.25
2023-01-29T16:47:38.304Z,42.95
2023-01-29T16:50:36.057Z,40.28
2023-01-29T16:53:15.010Z,43.25
2023-01-29T16:55:46.990Z,42.38
2023-01-29T16:58:21.056Z,40.20
2023-01-29T17:00:52.683Z,37.58
2023-01-29T17:03:23.075Z,37.70
2023-01-29T17:05:52.661Z,37.22
2023-01-29T17:08:26.537Z,37.45
2023-01-29T17:10:56.255Z,36.90
2023-01-29T17:13:32.339Z,39.40
2023-01-29T17:16:03.369Z,38.95
2023-01-29T17:18:33.218Z,35.03
2023-01-29T17:21:02.798Z,35.75
2023-01-29T17:23:32.357Z,39.00
2023-01-29T17:26:02.543Z,34.45
2023-01-29T17:28:34.712Z,31.65
2023-01-29T17:31:06.890Z,30.38
2023-01-29T17:33:37.327Z,34.72
2023-01-29T17:36:07.436Z,31.35
2023-01-29T17:38:37.052Z,30.13
2023-01-29T17:41:09.311Z,27.50
2023-01-29T17:43:41.455Z,30.65
2023-01-29T17:46:14.435Z,28.75
2023-01-29T17:48:44.315Z,30.80
2023-01-29T17:51:16.177Z,34.30
2023-01-29T17:53:47.323Z,29.15
2023-01-29T17:56:18.818Z,31.80
2023-01-29T17:58:51.179Z,26.92
2023-01-29T18:01:20.763Z,26.63
2023-01-29T18:03:50.381Z,24.60
2023-01-29T18:06:25.007Z,27.08
2023-01-29T18:08:54.555Z,26.17
2023-01-29T18:11:24.157Z,25.27
2023-01-29T18:13:56.334Z,27.98
2023-01-29T18:16:27.267Z,29.17
2023-01-29T18:18:56.864Z,26.65
2023-01-29T18:21:26.567Z,24.67
2023-01-29T18:23:56.495Z,26.60
2023-01-29T18:26:26.134Z,25.13
2023-01-29T18:28:58.395Z,25.00
2023-01-29T18:31:28.109Z,26.38
2023-01-29T18:33:57.691Z,27.63
2023-01-29T18:36:27.327Z,27.55
2023-01-29T18:38:56.954Z,25.23
2023-01-29T18:41:26.690Z,27.88
2023-01-29T18:43:58.847Z,24.98
2023-01-29T18:46:28.507Z,27.45
2023-01-29T18:48:58.130Z,24.50
2023-01-29T18:51:27.753Z,25.85
2023-01-29T18:53:57.348Z,27.05
2023-01-29T18:56:26.922Z,30.60
2023-01-29T18:58:59.834Z,26.52
2023-01-29T19:01:29.467Z,26.05
2023-01-29T19:04:00.298Z,25.15
2023-01-29T19:06:30.284Z,27.15
2023-01-29T19:08:59.832Z,24.75
2023-01-29T19:11:29.397Z,25.52
2023-01-29T19:14:01.575Z,27.35
2023-01-29T19:16:31.166Z,29.25
2023-01-29T19:19:00.750Z,26.40
2023-01-29T19:21:30.585Z,29.05
2023-01-29T19:24:00.141Z,30.63
2023-01-29T19:26:33.920Z,30.73
2023-01-29T19:29:09.241Z,36.00
2023-01-29T19:31:39.166Z,26.83
2023-01-29T19:34:09.237Z,28.95
2023-01-29T19:36:39.017Z,26.58
2023-01-29T19:39:08.641Z,31.10
2023-01-29T19:41:38.263Z,27.02
2023-01-29T19:44:10.586Z,28.17
2023-01-29T19:46:40.253Z,32.75
2023-01-29T19:49:10.690Z,34.25
2023-01-29T19:51:40.927Z,40.88
2023-01-29T19:54:12.051Z,30.40
2023-01-29T19:56:41.641Z,26.48
2023-01-29T19:59:14.179Z,26.85
2023-01-29T20:01:43.849Z,29.52
2023-01-29T20:04:13.910Z,25.77
2023-01-29T20:06:43.494Z,31.35
2023-01-29T20:09:13.075Z,28.35
2023-01-29T20:11:42.725Z,28.05
2023-01-29T20:14:15.092Z,35.05
2023-01-29T20:16:44.703Z,34.03
2023-01-29T20:19:15.261Z,36.33
2023-01-29T20:21:50.065Z,34.28
2023-01-29T20:24:19.630Z,34.58
2023-01-29T20:26:49.283Z,35.33
2023-01-29T20:29:21.463Z,34.20
2023-01-29T20:31:51.203Z,32.10
2023-01-29T20:34:20.901Z,38.17
2023-01-29T20:36:50.477Z,34.00
2023-01-29T20:39:20.254Z,34.55
2023-01-29T20:41:49.871Z,35.55
2023-01-29T20:44:22.031Z,37.25
2023-01-29T20:46:51.748Z,38.47
2023-01-29T20:49:21.820Z,38.13
2023-01-29T20:51:51.417Z,33.50
2023-01-29T20:54:21.198Z,39.42
2023-01-29T20:56:50.977Z,35.95
2023-01-29T20:59:23.734Z,38.10
2023-01-29T21:01:53.346Z,38.65
2023-01-29T21:04:23.287Z,39.42
2023-01-29T21:06:52.882Z,42.55
2023-01-29T21:09:22.910Z,38.38
2023-01-29T21:11:52.472Z,43.15
2023-01-29T21:14:24.927Z,41.58
2023-01-29T21:16:54.525Z,37.70
2023-01-29T21:19:24.101Z,37.15
2023-01-29T21:21:53.710Z,35.17
2023-01-29T21:24:23.288Z,42.08
2023-01-29T21:26:52.993Z,41.20
2023-01-29T21:29:25.142Z,40.75
2023-01-29T21:31:54.781Z,40.63
2023-01-29T21:34:24.449Z,41.85
2023-01-29T21:36:54.597Z,47.97
2023-01-29T21:39:26.375Z,42.30
2023-01-29T21:42:08.552Z,40.55
2023-01-29T21:44:40.890Z,39.63
2023-01-29T21:47:14.897Z,40.28
2023-01-29T21:49:45.174Z,39.28
2023-01-29T21:52:15.721Z,40.50
2023-01-29T21:54:49.022Z,39.15
2023-01-29T21:57:19.522Z,42.23
2023-01-29T21:59:52.927Z,35.78
2023-01-29T22:02:24.000Z,41.15
2023-01-29T22:05:08.741Z,37.20
2023-01-29T22:07:47.010Z,41.17
2023-01-29T22:10:17.286Z,34.22
2023-01-29T22:12:47.349Z,37.38
2023-01-29T22:15:21.131Z,38.83
2023-01-29T22:17:52.178Z,42.13
2023-01-29T22:20:29.613Z,37.00
2023-01-29T22:23:00.992Z,44.97
2023-01-29T22:25:32.208Z,35.42
2023-01-29T22:28:01.849Z,38.05
2023-01-29T22:30:34.028Z,40.67
2023-01-29T22:33:03.695Z,42.50
2023-01-29T22:35:33.562Z,42.70
2023-01-29T22:38:03.121Z,38.70
2023-01-29T22:40:32.926Z,44.20
2023-01-29T22:43:02.509Z,37.45
2023-01-29T22:45:35.026Z,45.47
2023-01-29T22:48:06.056Z,41.30
2023-01-29T22:50:36.742Z,43.80
2023-01-29T22:53:06.390Z,42.17
2023-01-29T22:55:36.124Z,41.33
2023-01-29T22:58:05.733Z,37.58
2023-01-29T23:00:37.856Z,42.63
2023-01-29T23:03:07.418Z,38.42
2023-01-29T23:05:37.116Z,40.05
2023-01-29T23:08:06.716Z,36.25
2023-01-29T23:10:36.302Z,36.55
2023-01-29T23:13:05.860Z,37.03
2023-01-29T23:15:37.997Z,38.35
2023-01-29T23:18:08.603Z,40.70
2023-01-29T23:20:38.182Z,39.53
2023-01-29T23:23:07.730Z,36.08
2023-01-29T23:25:49.775Z,38.92
2023-01-29T23:28:19.345Z,41.85
2023-01-29T23:30:52.194Z,38.70
2023-01-29T23:33:21.979Z,38.88
2023-01-29T23:35:51.563Z,38.40
2023-01-29T23:38:21.119Z,38.97
2023-01-29T23:40:51.013Z,35.72
2023-01-29T23:43:22.603Z,42.65
2023-01-29T23:45:54.833Z,39.10
2023-01-29T23:48:24.867Z,39.20
2023-01-29T23:50:54.570Z,38.65
2023-01-29T23:53:24.367Z,38.70
2023-01-29T23:56:04.494Z,34.70
2023-01-29T23:58:35.008Z,35.13
